createdAt,value
2023-05-12T00:03:41.224Z,10.80
2023-05-12T00:07:43.244Z,10.80
2023-05-12T00:11:48.343Z,10.60
2023-05-12T00:15:51.497Z,10.40
2023-05-12T00:19:53.320Z,10.50
2023-05-12T00:23:55.278Z,10.60
2023-05-12T00:27:57.326Z,10.70
2023-05-12T00:31:59.777Z,10.70
2023-05-12T00:36:03.537Z,10.80
2023-05-12T00:40:06.084Z,10.80
2023-05-12T00:44:08.062Z,10.80
2023-05-12T00:48:10.332Z,10.90
2023-05-12T00:52:12.380Z,10.90
2023-05-12T00:56:16.811Z,10.90
2023-05-12T01:00:19.183Z,10.90
2023-05-12T01:04:23.202Z,10.80
2023-05-12T01:08:25.597Z,10.80
2023-05-12T01:12:28.074Z,10.80
2023-05-12T01:16:37.106Z,10.80
2023-05-12T01:20:42.070Z,10.90
2023-05-12T01:25:04.532Z,10.80
2023-05-12T01:29:07.755Z,10.70
2023-05-12T01:33:10.252Z,10.70
2023-05-12T01:37:12.781Z,10.80
2023-05-12T01:41:16.609Z,10.80
2023-05-12T01:45:19.007Z,10.90
2023-05-12T01:49:22.210Z,10.80
2023-05-12T01:53:24.802Z,10.70
2023-05-12T01:57:26.799Z,10.50
2023-05-12T02:01:32.537Z,10.40
2023-05-12T02:05:35.603Z,10.50
2023-05-12T02:09:39.091Z,10.60
2023-05-12T02:13:41.532Z,10.70
2023-05-12T02:17:43.461Z,10.70
2023-05-12T02:21:46.190Z,10.80
2023-05-12T02:25:48.189Z,10.80
2023-05-12T02:29:50.296Z,10.80
2023-05-12T02:33:53.164Z,10.90
2023-05-12T02:37:55.070Z,10.90
2023-05-12T02:41:57.170Z,10.90
2023-05-12T02:45:59.688Z,10.90
2023-05-12T02:50:02.443Z,10.90
2023-05-12T02:54:04.493Z,10.80
2023-05-12T02:58:07.070Z,10.90
2023-05-12T03:02:09.255Z,10.80
2023-05-12T03:06:11.268Z,10.80
2023-05-12T03:10:13.222Z,10.90
2023-05-12T03:14:15.251Z,10.90
2023-05-12T03:18:17.063Z,10.80
2023-05-12T03:22:19.024Z,10.80
2023-05-12T03:26:21.130Z,10.80
2023-05-12T03:30:23.697Z,10.80
2023-05-12T03:34:26.129Z,10.80
2023-05-12T03:38:29.533Z,10.90
2023-05-12T03:42:31.753Z,10.80
2023-05-12T03:46:34.166Z,10.70
2023-05-12T03:50:36.312Z,10.70
2023-05-12T03:54:38.213Z,10.60
2023-05-12T03:58:40.153Z,10.70
2023-05-12T04:02:42.250Z,10.70
2023-05-12T04:06:44.079Z,10.70
2023-05-12T04:10:45.924Z,10.70
2023-05-12T04:14:48.714Z,10.80
2023-05-12T04:18:50.723Z,10.90
2023-05-12T04:22:52.582Z,10.70
2023-05-12T04:26:54.834Z,10.80
2023-05-12T04:30:56.798Z,10.70
2023-05-12T04:34:59.705Z,10.70
2023-05-12T04:39:01.999Z,10.60
2023-05-12T04:43:04.870Z,10.70
2023-05-12T04:47:07.552Z,10.80
2023-05-12T04:51:09.875Z,11.00
2023-05-12T04:55:12.180Z,10.90
2023-05-12T04:59:15.763Z,10.90
2023-05-12T05:03:18.314Z,10.90
2023-05-12T05:07:20.574Z,11.00
2023-05-12T05:11:23.166Z,11.00
2023-05-12T05:15:25.477Z,10.90
2023-05-12T05:19:39.102Z,11.00
2023-05-12T05:23:49.304Z,11.00
2023-05-12T05:27:51.794Z,11.00
2023-05-12T05:31:54.024Z,11.10
2023-05-12T05:35:56.281Z,11.20
2023-05-12T05:39:58.439Z,11.20
2023-05-12T05:44:01.495Z,11.20
2023-05-12T05:48:04.361Z,11.20
2023-05-12T05:52:06.582Z,11.20
2023-05-12T05:56:08.550Z,10.90
2023-05-12T06:00:12.404Z,11.00
2023-05-12T06:04:21.560Z,11.20
2023-05-12T06:08:23.614Z,11.10
2023-05-12T06:12:25.504Z,10.50
2023-05-12T06:16:27.848Z,10.60
2023-05-12T06:20:29.810Z,10.70
2023-05-12T06:24:31.737Z,10.70
2023-05-12T06:28:34.226Z,11.00
2023-05-12T06:32:37.219Z,11.20
2023-05-12T06:36:40.632Z,11.40
2023-05-12T06:40:42.707Z,11.50
2023-05-12T06:44:45.648Z,11.50
2023-05-12T06:48:47.828Z,11.80
2023-05-12T06:52:50.512Z,11.50
2023-05-12T06:56:53.081Z,11.10
2023-05-12T07:00:54.909Z,11.50
2023-05-12T07:04:57.113Z,11.40
2023-05-12T07:08:59.118Z,11.80
2023-05-12T07:13:01.429Z,11.90
2023-05-12T07:17:03.978Z,12.10
2023-05-12T07:21:06.141Z,11.70
2023-05-12T07:25:08.414Z,12.00
2023-05-12T07:29:13.616Z,12.10
2023-05-12T07:33:15.892Z,12.20
2023-05-12T07:37:18.146Z,12.30
2023-05-12T07:41:20.169Z,12.20
2023-05-12T07:45:25.235Z,12.30
2023-05-12T07:49:27.018Z,12.40
2023-05-12T07:53:28.961Z,11.90
2023-05-12T07:57:30.779Z,11.70
2023-05-12T08:01:32.632Z,11.90
2023-05-12T08:05:34.799Z,11.90
2023-05-12T08:09:36.699Z,12.10
2023-05-12T08:13:38.585Z,12.40
2023-05-12T08:17:40.709Z,12.30
2023-05-12T08:21:42.821Z,12.00
2023-05-12T08:25:44.945Z,11.50
2023-05-12T08:29:47.119Z,12.00
2023-05-12T08:33:51.863Z,12.10
2023-05-12T08:37:57.431Z,12.30
2023-05-12T08:42:21.782Z,12.60
2023-05-12T08:46:24.002Z,12.20
2023-05-12T08:50:28.238Z,12.50
2023-05-12T08:54:30.433Z,12.70
2023-05-12T08:58:40.865Z,12.60
2023-05-12T09:02:51.972Z,12.30
2023-05-12T09:06:55.977Z,12.70
2023-05-12T09:10:59.014Z,12.80
2023-05-12T09:15:05.846Z,12.60
2023-05-12T09:19:08.659Z,12.80
2023-05-12T09:23:19.054Z,12.50
2023-05-12T09:27:28.158Z,12.00
2023-05-12T09:31:30.145Z,11.80
2023-05-12T09:35:32.079Z,11.90
2023-05-12T09:39:34.646Z,11.20
2023-05-12T09:43:37.484Z,10.90
2023-05-12T09:47:40.750Z,11.40
2023-05-12T09:51:42.810Z,11.10
2023-05-12T09:55:46.077Z,10.80
2023-05-12T09:59:49.635Z,11.60
2023-05-12T10:03:54.882Z,12.00
2023-05-12T10:08:00.061Z,11.30
2023-05-12T10:12:04.527Z,11.50
2023-05-12T10:16:07.899Z,11.50
2023-05-12T10:20:11.208Z,12.20
2023-05-12T10:24:19.321Z,12.40
2023-05-12T10:28:22.284Z,12.90
2023-05-12T10:32:24.287Z,12.50
2023-05-12T10:36:26.698Z,12.80
2023-05-12T10:40:28.859Z,11.80
2023-05-12T10:44:31.012Z,11.70
2023-05-12T10:48:33.107Z,12.10
2023-05-12T10:52:35.389Z,10.70
2023-05-12T10:56:37.635Z,9.90
2023-05-12T11:00:50.586Z,10.90
2023-05-12T11:04:53.710Z,11.50
2023-05-12T11:08:57.099Z,11.10
2023-05-12T11:12:59.480Z,10.40
2023-05-12T11:17:01.571Z,10.30
2023-05-12T11:21:11.290Z,11.40
2023-05-12T11:25:14.049Z,12.00
2023-05-12T11:29:16.768Z,11.80
2023-05-12T11:33:24.751Z,12.60
2023-05-12T11:37:26.730Z,13.20
2023-05-12T11:41:29.013Z,13.50
2023-05-12T11:45:31.575Z,13.10
2023-05-12T11:49:34.900Z,12.20
2023-05-12T11:53:40.565Z,12.40
2023-05-12T11:57:42.859Z,12.60
2023-05-12T12:01:48.877Z,12.50
2023-05-12T12:06:01.821Z,12.60
2023-05-12T12:10:31.080Z,12.40
2023-05-12T12:14:34.973Z,12.70
2023-05-12T12:18:36.817Z,11.60
2023-05-12T12:22:38.610Z,11.30
2023-05-12T12:26:40.619Z,11.40
2023-05-12T12:30:42.575Z,11.20
2023-05-12T12:34:46.338Z,11.80
2023-05-12T12:38:48.202Z,11.20
2023-05-12T12:42:50.237Z,11.00
2023-05-12T12:46:52.134Z,11.40
2023-05-12T12:50:55.584Z,11.60
2023-05-12T12:54:57.849Z,11.70
2023-05-12T12:58:59.725Z,11.80
2023-05-12T13:03:01.879Z,11.50
2023-05-12T13:07:03.984Z,11.40
2023-05-12T13:11:05.839Z,11.80
2023-05-12T13:15:08.386Z,10.70
2023-05-12T13:19:10.231Z,11.10
2023-05-12T13:23:12.337Z,11.20
2023-05-12T13:27:14.268Z,11.60
2023-05-12T13:31:16.291Z,11.10
2023-05-12T13:35:18.466Z,10.90
2023-05-12T13:39:20.390Z,11.60
2023-05-12T13:43:22.389Z,11.50
2023-05-12T13:47:24.352Z,11.20
2023-05-12T13:51:26.419Z,11.60
2023-05-12T13:55:28.417Z,11.50
2023-05-12T13:59:31.346Z,11.80
2023-05-12T14:03:33.258Z,11.20
2023-05-12T14:07:35.016Z,11.30
2023-05-12T14:11:36.939Z,12.00
2023-05-12T14:15:48.662Z,11.80
2023-05-12T14:19:52.092Z,10.60
2023-05-12T14:23:54.117Z,11.40
2023-05-12T14:27:56.829Z,11.00
2023-05-12T14:31:59.887Z,11.00
2023-05-12T14:36:07.335Z,11.80
2023-05-12T14:40:12.072Z,12.50
2023-05-12T14:44:13.920Z,11.80
2023-05-12T14:48:15.844Z,11.80
2023-05-12T14:52:17.994Z,11.90
2023-05-12T14:56:20.332Z,11.10
2023-05-12T15:00:22.603Z,11.90
2023-05-12T15:04:25.173Z,11.60
2023-05-12T15:08:27.176Z,10.30
2023-05-12T15:12:29.261Z,10.90
2023-05-12T15:16:31.725Z,11.80
2023-05-12T15:20:34.264Z,11.20
2023-05-12T15:24:36.487Z,11.00
2023-05-12T15:28:38.401Z,11.60
2023-05-12T15:32:41.112Z,11.80
2023-05-12T15:36:45.557Z,10.80
2023-05-12T15:40:47.569Z,11.20
2023-05-12T15:44:49.561Z,10.50
2023-05-12T15:48:51.707Z,11.10
2023-05-12T15:52:53.635Z,11.00
2023-05-12T15:56:55.549Z,11.70
2023-05-12T16:00:57.656Z,11.90
2023-05-12T16:04:59.491Z,12.00
2023-05-12T16:09:01.572Z,11.00
2023-05-12T16:13:03.503Z,10.60
2023-05-12T16:17:05.463Z,10.70
2023-05-12T16:21:08.247Z,10.60
2023-05-12T16:25:10.264Z,11.00
2023-05-12T16:29:12.155Z,10.30
2023-05-12T16:33:14.262Z,10.70
2023-05-12T16:37:16.260Z,10.30
2023-05-12T16:41:18.787Z,10.40
2023-05-12T16:45:22.498Z,10.50
2023-05-12T16:49:24.771Z,11.10
2023-05-12T16:53:28.863Z,10.90
2023-05-12T16:57:31.883Z,10.50
2023-05-12T17:01:35.937Z,10.30
2023-05-12T17:05:38.233Z,10.20
2023-05-12T17:09:40.308Z,10.20
2023-05-12T17:13:42.211Z,10.40
2023-05-12T17:17:44.146Z,10.80
2023-05-12T17:21:46.360Z,10.10
2023-05-12T17:25:48.204Z,9.90
2023-05-12T17:29:50.200Z,10.00
2023-05-12T17:33:52.376Z,10.50
2023-05-12T17:37:55.588Z,11.10
2023-05-12T17:41:59.087Z,10.90
2023-05-12T17:46:01.053Z,10.30
2023-05-12T17:50:03.036Z,9.80
2023-05-12T17:54:04.982Z,9.80
2023-05-12T17:58:06.929Z,9.10
2023-05-12T18:02:08.990Z,9.60
2023-05-12T18:06:12.797Z,9.70
2023-05-12T18:10:15.034Z,10.20
2023-05-12T18:14:17.311Z,9.30
2023-05-12T18:18:19.585Z,9.50
2023-05-12T18:22:21.636Z,9.70
2023-05-12T18:26:23.547Z,9.70
2023-05-12T18:30:25.543Z,9.60
2023-05-12T18:34:27.596Z,10.40
2023-05-12T18:38:29.978Z,9.90
2023-05-12T18:42:32.019Z,10.60
2023-05-12T18:46:34.183Z,11.00
2023-05-12T18:50:36.132Z,10.10
2023-05-12T18:54:39.803Z,10.70
2023-05-12T18:58:41.833Z,11.10
2023-05-12T19:02:45.747Z,10.40
2023-05-12T19:06:48.416Z,10.80
2023-05-12T19:10:50.260Z,10.60
2023-05-12T19:14:52.143Z,10.80
2023-05-12T19:22:56.445Z,10.80
2023-05-12T19:26:58.497Z,10.60
2023-05-12T19:31:00.570Z,11.00
2023-05-12T19:35:05.709Z,10.60
2023-05-12T19:39:07.782Z,10.60
2023-05-12T19:43:10.649Z,10.50
2023-05-12T19:47:12.736Z,10.80
2023-05-12T19:51:14.735Z,10.50
2023-05-12T19:55:16.860Z,10.90
2023-05-12T19:59:18.850Z,10.10
2023-05-12T20:03:21.104Z,10.60
2023-05-12T20:07:23.067Z,10.70
2023-05-12T20:11:25.078Z,11.20
2023-05-12T20:15:26.977Z,11.10
2023-05-12T20:19:28.830Z,9.80
2023-05-12T20:23:30.961Z,9.30
2023-05-12T20:27:33.322Z,9.70
2023-05-12T20:31:35.410Z,10.50
2023-05-12T20:35:37.419Z,10.60
2023-05-12T20:39:39.409Z,10.90
2023-05-12T20:43:41.436Z,10.40
2023-05-12T20:47:43.450Z,9.50
2023-05-12T20:51:45.516Z,10.30
2023-05-12T20:55:47.476Z,10.20
2023-05-12T20:59:52.459Z,10.60
2023-05-12T21:03:54.212Z,10.90
2023-05-12T21:07:56.192Z,10.90
2023-05-12T21:11:59.006Z,9.80
2023-05-12T21:16:01.024Z,10.00
2023-05-12T21:20:03.324Z,10.50
2023-05-12T21:24:05.423Z,10.70
2023-05-12T21:28:07.648Z,10.00
2023-05-12T21:32:09.766Z,9.70
2023-05-12T21:36:11.620Z,10.00
2023-05-12T21:40:13.858Z,9.50
2023-05-12T21:44:16.268Z,9.70
2023-05-12T21:48:18.554Z,10.00
2023-05-12T21:52:20.703Z,9.40
2023-05-12T21:56:23.063Z,9.60
2023-05-12T22:00:26.260Z,9.40
2023-05-12T22:04:28.340Z,10.00
2023-05-12T22:08:30.370Z,10.30
2023-05-12T22:12:32.515Z,10.30
2023-05-12T22:16:41.363Z,10.40
2023-05-12T22:20:44.746Z,10.60
2023-05-12T22:24:46.551Z,10.40
2023-05-12T22:28:48.446Z,9.80
2023-05-12T22:32:51.277Z,10.20
2023-05-12T22:36:53.193Z,9.60
2023-05-12T22:40:55.218Z,9.30
2023-05-12T22:44:58.297Z,9.50
2023-05-12T22:49:00.327Z,10.10
2023-05-12T22:53:02.318Z,10.70
2023-05-12T22:57:04.377Z,10.60
2023-05-12T23:01:06.553Z,10.30
2023-05-12T23:05:09.056Z,9.60
2023-05-12T23:09:11.094Z,9.90
2023-05-12T23:13:13.057Z,10.20
2023-05-12T23:17:15.057Z,10.40
2023-05-12T23:21:17.029Z,10.60
2023-05-12T23:25:19.455Z,10.40
2023-05-12T23:29:21.328Z,10.60
2023-05-12T23:33:23.281Z,10.50
2023-05-12T23:37:25.421Z,10.40
2023-05-12T23:41:31.459Z,10.80
2023-05-12T23:45:34.245Z,10.90
2023-05-12T23:49:36.237Z,10.70
2023-05-12T23:53:38.301Z,10.20
2023-05-12T23:57:40.552Z,9.80
